createdAt,value
2022-09-30T00:01:44.578Z,100.00
2022-09-30T00:04:18.662Z,100.00
2022-09-30T00:06:45.691Z,100.00
2022-09-30T00:09:13.096Z,100.00
2022-09-30T00:11:41.978Z,100.00
2022-09-30T00:14:16.133Z,100.00
2022-09-30T00:16:44.050Z,100.00
2022-09-30T00:19:11.408Z,100.00
2022-09-30T00:21:38.748Z,100.00
2022-09-30T00:24:07.030Z,100.00
2022-09-30T00:26:35.842Z,100.00
2022-09-30T00:29:04.184Z,100.00
2022-09-30T00:31:34.865Z,100.00
2022-09-30T00:34:09.698Z,100.00
2022-09-30T00:36:40.210Z,100.00
2022-09-30T00:39:10.415Z,100.00
2022-09-30T00:41:37.825Z,100.00
2022-09-30T00:44:44.407Z,100.00
2022-09-30T00:47:52.017Z,100.00
2022-09-30T00:50:42.652Z,100.00
2022-09-30T00:53:22.574Z,100.00
2022-09-30T00:56:07.690Z,100.00
2022-09-30T00:58:45.817Z,100.00
2022-09-30T01:01:13.043Z,100.00
2022-09-30T01:04:01.401Z,100.00
2022-09-30T01:06:29.115Z,100.00
2022-09-30T01:08:58.387Z,100.00
2022-09-30T01:11:28.804Z,100.00
2022-09-30T01:14:01.975Z,100.00
2022-09-30T01:17:28.188Z,100.00
2022-09-30T01:20:52.143Z,100.00
2022-09-30T01:24:03.652Z,100.00
2022-09-30T01:27:00.988Z,100.00
2022-09-30T01:30:15.694Z,100.00
2022-09-30T01:33:04.425Z,100.00
2022-09-30T01:36:00.010Z,100.00
2022-09-30T01:38:56.321Z,100.00
2022-09-30T01:41:25.746Z,100.00
2022-09-30T01:44:12.934Z,100.00
2022-09-30T01:47:05.899Z,100.00
2022-09-30T01:49:56.693Z,100.00
2022-09-30T01:52:45.048Z,100.00
2022-09-30T01:55:32.621Z,100.00
2022-09-30T01:58:16.146Z,100.00
2022-09-30T02:00:49.857Z,100.00
2022-09-30T02:03:33.821Z,100.00
2022-09-30T02:06:09.136Z,100.00
2022-09-30T02:08:41.339Z,100.00
2022-09-30T02:11:26.658Z,100.00
2022-09-30T02:14:38.824Z,100.00
2022-09-30T02:17:21.764Z,100.00
2022-09-30T02:20:00.857Z,100.00
2022-09-30T02:22:43.398Z,100.00
2022-09-30T02:25:34.560Z,100.00
2022-09-30T02:28:08.189Z,100.00
2022-09-30T02:30:38.580Z,100.00
2022-09-30T02:33:13.104Z,100.00
2022-09-30T02:35:48.877Z,100.00
2022-09-30T02:38:22.449Z,100.00
2022-09-30T02:41:06.391Z,100.00
2022-09-30T02:43:34.350Z,100.00
2022-09-30T02:46:27.734Z,100.00
2022-09-30T02:49:25.060Z,100.00
2022-09-30T02:52:12.914Z,100.00
2022-09-30T02:55:24.155Z,100.00
2022-09-30T02:58:11.252Z,100.00
2022-09-30T03:00:38.436Z,100.00
2022-09-30T03:03:25.731Z,100.00
2022-09-30T03:05:52.841Z,100.00
2022-09-30T03:08:20.114Z,100.00
2022-09-30T03:10:52.929Z,100.00
2022-09-30T03:13:38.347Z,100.00
2022-09-30T03:16:21.980Z,100.00
2022-09-30T03:19:16.726Z,100.00
2022-09-30T03:22:04.314Z,100.00
2022-09-30T03:25:17.404Z,100.00
2022-09-30T03:28:07.720Z,100.00
2022-09-30T03:30:49.319Z,100.00
2022-09-30T03:33:52.680Z,100.00
2022-09-30T03:36:55.042Z,100.00
2022-09-30T03:39:59.897Z,100.00
2022-09-30T03:42:39.369Z,100.00
2022-09-30T03:45:27.961Z,100.00
2022-09-30T03:48:01.604Z,100.00
2022-09-30T03:50:31.323Z,100.00
2022-09-30T03:52:58.591Z,100.00
2022-09-30T03:55:26.340Z,100.00
2022-09-30T03:57:54.396Z,100.00
2022-09-30T04:00:21.688Z,100.00
2022-09-30T04:02:48.555Z,100.00
2022-09-30T04:05:15.638Z,100.00
2022-09-30T04:07:42.504Z,100.00
2022-09-30T04:10:09.981Z,100.00
2022-09-30T04:12:37.366Z,100.00
2022-09-30T04:15:05.232Z,100.00
2022-09-30T04:17:32.138Z,100.00
2022-09-30T04:19:59.050Z,100.00
2022-09-30T04:22:26.687Z,100.00
2022-09-30T04:24:53.720Z,100.00
2022-09-30T04:27:20.614Z,100.00
2022-09-30T04:29:47.546Z,100.00
2022-09-30T04:32:14.436Z,100.00
2022-09-30T04:34:41.559Z,100.00
2022-09-30T04:37:11.062Z,100.00
2022-09-30T04:39:38.220Z,100.00
2022-09-30T04:42:06.488Z,100.00
2022-09-30T04:44:34.145Z,100.00
2022-09-30T04:47:01.053Z,100.00
2022-09-30T04:49:28.011Z,100.00
2022-09-30T04:51:55.414Z,100.00
2022-09-30T04:54:22.435Z,100.00
2022-09-30T04:56:49.657Z,100.00
2022-09-30T04:59:16.537Z,100.00
2022-09-30T05:01:44.545Z,100.00
2022-09-30T05:04:16.203Z,100.00
2022-09-30T05:06:43.123Z,100.00
2022-09-30T05:09:10.051Z,100.00
2022-09-30T05:11:42.223Z,100.00
2022-09-30T05:14:09.506Z,100.00
2022-09-30T05:16:36.508Z,100.00
2022-09-30T05:19:03.951Z,100.00
2022-09-30T05:21:30.826Z,100.00
2022-09-30T05:23:58.428Z,100.00
2022-09-30T05:26:25.346Z,100.00
2022-09-30T05:28:52.730Z,100.00
2022-09-30T05:31:20.894Z,100.00
2022-09-30T05:33:48.019Z,100.00
2022-09-30T05:36:16.498Z,100.00
2022-09-30T05:38:43.930Z,100.00
2022-09-30T05:41:15.754Z,100.00
2022-09-30T05:43:53.032Z,100.00
2022-09-30T05:46:20.881Z,100.00
2022-09-30T05:48:47.801Z,100.00
2022-09-30T05:51:14.771Z,100.00
2022-09-30T05:53:42.166Z,100.00
2022-09-30T05:56:10.471Z,100.00
2022-09-30T05:58:38.638Z,100.00
2022-09-30T06:01:13.083Z,100.00
2022-09-30T06:03:42.054Z,100.00
2022-09-30T06:06:09.538Z,100.00
2022-09-30T06:08:36.628Z,100.00
2022-09-30T06:11:11.867Z,100.00
2022-09-30T06:13:40.723Z,100.00
2022-09-30T06:16:09.143Z,100.00
2022-09-30T06:18:36.556Z,100.00
2022-09-30T06:21:05.197Z,100.00
2022-09-30T06:23:35.063Z,100.00
2022-09-30T06:26:04.664Z,100.00
2022-09-30T06:28:35.069Z,100.00
2022-09-30T06:31:06.977Z,100.00
2022-09-30T06:33:34.672Z,100.00
2022-09-30T06:36:04.406Z,100.00
2022-09-30T06:38:33.191Z,100.00
2022-09-30T06:41:00.878Z,100.00
2022-09-30T06:43:28.297Z,100.00
2022-09-30T06:46:05.963Z,100.00
2022-09-30T06:48:40.462Z,100.00
2022-09-30T06:51:10.401Z,100.00
2022-09-30T06:53:40.066Z,100.00
2022-09-30T06:56:07.048Z,100.00
2022-09-30T06:58:33.947Z,100.00
2022-09-30T07:01:04.528Z,100.00
2022-09-30T07:03:34.614Z,100.00
2022-09-30T07:06:04.821Z,100.00
2022-09-30T07:08:34.056Z,100.00
2022-09-30T07:11:14.314Z,100.00
2022-09-30T07:13:43.342Z,100.00
2022-09-30T07:16:12.116Z,100.00
2022-09-30T07:18:42.190Z,100.00
2022-09-30T07:21:10.644Z,100.00
2022-09-30T07:23:37.582Z,100.00
2022-09-30T07:26:05.832Z,100.00
2022-09-30T07:28:39.286Z,100.00
2022-09-30T07:31:33.029Z,100.00
2022-09-30T07:33:59.746Z,100.00
2022-09-30T07:36:32.504Z,100.00
2022-09-30T07:39:06.555Z,100.00
2022-09-30T07:41:37.027Z,100.00
2022-09-30T07:44:06.238Z,100.00
2022-09-30T07:46:39.002Z,100.00
2022-09-30T07:49:12.415Z,100.00
2022-09-30T07:51:45.045Z,100.00
2022-09-30T07:54:18.746Z,100.00
2022-09-30T07:59:38.940Z,100.00
2022-09-30T08:02:10.704Z,100.00
2022-09-30T08:04:42.923Z,100.00
2022-09-30T08:07:11.394Z,100.00
2022-09-30T08:09:38.515Z,100.00
2022-09-30T08:12:05.600Z,100.00
2022-09-30T08:14:33.034Z,100.00
2022-09-30T08:17:00.440Z,100.00
2022-09-30T08:19:30.233Z,99.71
2022-09-30T08:21:57.921Z,99.18
2022-09-30T08:24:26.374Z,100.00
2022-09-30T08:26:54.392Z,98.72
2022-09-30T08:29:36.085Z,98.95
2022-09-30T08:32:08.898Z,99.71
2022-09-30T08:34:36.103Z,99.64
2022-09-30T08:37:08.686Z,98.81
2022-09-30T08:39:39.935Z,98.47
2022-09-30T08:42:41.376Z,96.45
2022-09-30T08:45:37.542Z,93.64
2022-09-30T08:48:19.773Z,93.21
2022-09-30T08:51:05.273Z,93.31
2022-09-30T08:53:39.023Z,94.39
2022-09-30T08:56:07.508Z,93.65
2022-09-30T08:58:39.290Z,92.32
2022-09-30T09:01:26.477Z,91.11
2022-09-30T09:03:54.451Z,89.09
2022-09-30T09:06:53.052Z,88.52
2022-09-30T09:09:49.992Z,87.45
2022-09-30T09:12:40.935Z,86.21
2022-09-30T09:15:23.218Z,85.21
2022-09-30T09:18:34.891Z,85.04
2022-09-30T09:21:47.735Z,85.65
2022-09-30T09:24:20.137Z,85.20
2022-09-30T09:26:48.347Z,84.84
2022-09-30T09:29:36.652Z,84.10
2022-09-30T09:32:14.337Z,83.29
2022-09-30T09:34:41.728Z,85.25
2022-09-30T09:37:59.530Z,82.62
2022-09-30T09:40:38.373Z,75.45
2022-09-30T09:43:23.778Z,75.28
2022-09-30T09:46:14.937Z,76.29
2022-09-30T09:48:42.603Z,75.70
2022-09-30T09:51:33.387Z,76.17
2022-09-30T09:54:02.281Z,75.35
2022-09-30T09:56:32.463Z,75.65
2022-09-30T09:59:12.523Z,73.28
2022-09-30T10:01:53.497Z,74.07
2022-09-30T10:04:27.640Z,74.27
2022-09-30T10:07:00.907Z,74.54
2022-09-30T10:09:36.105Z,72.98
2022-09-30T10:12:05.662Z,73.05
2022-09-30T10:14:36.241Z,72.68
2022-09-30T10:17:05.794Z,72.62
2022-09-30T10:19:34.991Z,72.01
2022-09-30T10:22:11.859Z,70.71
2022-09-30T10:24:40.053Z,69.61
2022-09-30T10:27:34.377Z,69.45
2022-09-30T10:30:01.812Z,69.78
2022-09-30T10:32:29.390Z,70.51
2022-09-30T10:35:23.762Z,69.77
2022-09-30T10:37:54.909Z,68.62
2022-09-30T10:40:30.465Z,68.40
2022-09-30T10:42:58.332Z,67.84
2022-09-30T10:45:36.656Z,68.73
2022-09-30T10:48:15.776Z,68.16
2022-09-30T10:50:53.929Z,67.85
2022-09-30T10:53:25.113Z,67.90
2022-09-30T10:55:54.444Z,67.88
2022-09-30T10:58:40.049Z,67.83
2022-09-30T11:01:38.789Z,68.76
2022-09-30T11:04:26.473Z,67.31
2022-09-30T11:07:14.839Z,64.47
2022-09-30T11:09:54.717Z,64.50
2022-09-30T11:12:47.470Z,63.88
2022-09-30T11:15:29.186Z,65.26
2022-09-30T11:18:43.218Z,64.39
2022-09-30T11:21:20.064Z,62.89
2022-09-30T11:24:15.525Z,63.00
2022-09-30T11:27:09.506Z,62.79
2022-09-30T11:30:18.062Z,62.33
2022-09-30T11:33:14.777Z,61.78
2022-09-30T11:36:02.902Z,61.09
2022-09-30T11:39:04.921Z,61.60
2022-09-30T11:41:55.284Z,62.34
2022-09-30T11:44:44.714Z,60.77
2022-09-30T11:47:50.321Z,62.52
2022-09-30T11:50:52.649Z,63.74
2022-09-30T11:54:02.160Z,64.90
2022-09-30T11:57:04.577Z,64.68
2022-09-30T12:00:07.889Z,65.08
2022-09-30T12:02:50.174Z,64.86
2022-09-30T12:05:31.031Z,63.83
2022-09-30T12:08:07.151Z,62.62
2022-09-30T12:10:44.264Z,63.74
2022-09-30T12:13:18.479Z,63.09
2022-09-30T12:15:48.172Z,63.59
2022-09-30T12:18:21.337Z,62.73
2022-09-30T12:20:55.612Z,61.96
2022-09-30T12:23:58.100Z,62.13
2022-09-30T12:26:26.001Z,62.32
2022-09-30T12:29:19.414Z,62.56
2022-09-30T12:32:11.993Z,63.08
2022-09-30T12:35:20.504Z,62.91
2022-09-30T12:38:22.353Z,62.19
2022-09-30T12:41:37.127Z,61.35
2022-09-30T12:44:40.969Z,61.17
2022-09-30T12:47:28.233Z,61.09
2022-09-30T12:49:59.086Z,61.28
2022-09-30T12:52:31.997Z,61.64
2022-09-30T12:55:18.831Z,62.71
2022-09-30T12:57:47.950Z,63.70
2022-09-30T13:00:19.496Z,64.68
2022-09-30T13:02:55.415Z,63.82
2022-09-30T13:05:31.832Z,61.97
2022-09-30T13:08:04.884Z,58.72
2022-09-30T13:10:34.493Z,58.71
2022-09-30T13:13:13.259Z,59.97
2022-09-30T13:15:45.837Z,58.84
2022-09-30T13:18:26.805Z,57.02
2022-09-30T13:21:06.614Z,57.18
2022-09-30T13:23:43.271Z,55.93
2022-09-30T13:26:34.402Z,55.66
2022-09-30T13:29:01.395Z,55.71
2022-09-30T13:31:32.229Z,55.89
2022-09-30T13:34:02.206Z,55.74
2022-09-30T13:36:35.877Z,56.93
2022-09-30T13:39:25.530Z,57.74
2022-09-30T13:41:58.550Z,58.19
2022-09-30T13:45:03.759Z,59.10
2022-09-30T13:47:48.087Z,59.07
2022-09-30T13:50:31.674Z,58.00
2022-09-30T13:53:16.978Z,57.68
2022-09-30T13:55:50.843Z,56.86
2022-09-30T13:59:15.982Z,56.32
2022-09-30T14:02:09.200Z,57.09
2022-09-30T14:05:20.706Z,57.56
2022-09-30T14:08:02.967Z,56.80
2022-09-30T14:11:15.365Z,57.13
2022-09-30T14:14:06.200Z,58.10
2022-09-30T14:17:05.246Z,58.11
2022-09-30T14:20:10.146Z,58.02
2022-09-30T14:22:37.929Z,58.31
2022-09-30T14:25:14.687Z,57.04
2022-09-30T14:27:55.451Z,56.74
2022-09-30T14:30:25.367Z,57.18
2022-09-30T14:33:10.761Z,57.44
2022-09-30T14:35:41.403Z,57.30
2022-09-30T14:38:21.272Z,57.14
2022-09-30T14:40:57.270Z,57.85
2022-09-30T14:43:37.771Z,57.01
2022-09-30T14:46:26.746Z,56.80
2022-09-30T14:48:58.891Z,57.29
2022-09-30T14:51:27.402Z,57.37
2022-09-30T14:54:01.945Z,56.27
2022-09-30T14:56:33.581Z,56.20
2022-09-30T14:59:19.456Z,56.50
2022-09-30T15:02:00.705Z,56.92
2022-09-30T15:04:39.186Z,57.74
2022-09-30T15:07:11.689Z,58.14
2022-09-30T15:09:46.038Z,57.82
2022-09-30T15:12:22.928Z,58.54
2022-09-30T15:14:55.704Z,58.53
2022-09-30T15:17:38.497Z,58.58
2022-09-30T15:20:24.134Z,59.02
2022-09-30T15:22:54.468Z,58.41
2022-09-30T15:25:22.542Z,58.25
2022-09-30T15:27:50.114Z,58.62
2022-09-30T15:30:19.997Z,58.44
2022-09-30T15:32:50.285Z,58.30
2022-09-30T15:35:24.012Z,57.78
2022-09-30T15:37:52.461Z,58.20
2022-09-30T15:40:41.601Z,57.54
2022-09-30T15:43:33.123Z,57.76
2022-09-30T15:46:29.357Z,58.01
2022-09-30T15:49:03.094Z,58.31
2022-09-30T15:51:42.505Z,58.76
2022-09-30T15:54:15.383Z,58.62
2022-09-30T15:56:43.586Z,58.91
2022-09-30T15:59:14.711Z,58.88
2022-09-30T16:01:48.957Z,59.05
2022-09-30T16:04:15.839Z,59.27
2022-09-30T16:06:56.916Z,59.33
2022-09-30T16:09:39.629Z,59.43
2022-09-30T16:12:30.496Z,59.48
2022-09-30T16:15:14.209Z,59.92
2022-09-30T16:17:47.726Z,59.80
2022-09-30T16:20:14.637Z,60.29
2022-09-30T16:22:41.542Z,60.70
2022-09-30T16:25:30.847Z,61.43
2022-09-30T16:28:14.963Z,61.37
2022-09-30T16:30:49.567Z,61.88
2022-09-30T16:33:26.040Z,62.01
2022-09-30T16:35:53.058Z,62.46
2022-09-30T16:38:20.090Z,62.91
2022-09-30T16:40:47.418Z,63.15
2022-09-30T16:43:14.447Z,63.47
2022-09-30T16:45:42.380Z,63.93
2022-09-30T16:48:16.669Z,64.71
2022-09-30T16:50:46.058Z,64.81
2022-09-30T16:53:13.786Z,65.46
2022-09-30T16:55:41.248Z,65.78
2022-09-30T16:58:12.739Z,66.38
2022-09-30T17:00:46.736Z,67.11
2022-09-30T17:03:17.192Z,67.32
2022-09-30T17:05:46.563Z,67.52
2022-09-30T17:08:17.000Z,67.73
2022-09-30T17:10:47.409Z,67.92
2022-09-30T17:13:17.160Z,67.99
2022-09-30T17:15:49.841Z,68.71
2022-09-30T17:18:17.381Z,68.96
2022-09-30T17:20:48.994Z,69.26
2022-09-30T17:23:15.962Z,69.98
2022-09-30T17:25:43.276Z,69.88
2022-09-30T17:28:12.166Z,70.15
2022-09-30T17:30:41.180Z,70.80
2022-09-30T17:33:11.625Z,71.41
2022-09-30T17:35:39.143Z,71.82
2022-09-30T17:38:13.424Z,72.76
2022-09-30T17:40:59.204Z,73.14
2022-09-30T17:43:26.517Z,73.86
2022-09-30T17:45:55.417Z,73.95
2022-09-30T17:48:22.629Z,74.01
2022-09-30T17:50:49.561Z,74.11
2022-09-30T17:53:18.934Z,74.17
2022-09-30T17:55:48.049Z,74.50
2022-09-30T17:58:19.156Z,75.38
2022-09-30T18:00:47.031Z,75.30
2022-09-30T18:03:14.016Z,75.44
2022-09-30T18:05:41.031Z,76.19
2022-09-30T18:08:07.929Z,76.24
2022-09-30T18:10:37.608Z,76.67
2022-09-30T18:13:05.285Z,76.93
2022-09-30T18:15:32.445Z,76.82
2022-09-30T18:17:59.344Z,77.34
2022-09-30T18:20:26.578Z,77.73
2022-09-30T18:22:53.645Z,78.41
2022-09-30T18:25:20.657Z,78.45
2022-09-30T18:27:53.596Z,78.20
2022-09-30T18:30:21.588Z,78.85
2022-09-30T18:32:52.011Z,78.88
2022-09-30T18:35:22.141Z,78.60
2022-09-30T18:37:50.072Z,79.04
2022-09-30T18:40:22.853Z,79.03
2022-09-30T18:42:59.157Z,79.02
2022-09-30T18:45:31.847Z,79.25
2022-09-30T18:48:00.467Z,79.90
2022-09-30T18:50:30.064Z,79.84
2022-09-30T18:52:58.098Z,79.75
2022-09-30T18:55:25.422Z,79.83
2022-09-30T18:57:55.960Z,79.83
2022-09-30T19:00:22.918Z,79.92
2022-09-30T19:02:52.357Z,80.37
2022-09-30T19:05:19.537Z,80.10
2022-09-30T19:07:46.417Z,80.34
2022-09-30T19:10:13.636Z,80.49
2022-09-30T19:12:44.459Z,80.81
2022-09-30T19:15:17.623Z,80.88
2022-09-30T19:17:45.551Z,80.85
2022-09-30T19:20:15.246Z,80.38
2022-09-30T19:22:42.465Z,81.20
2022-09-30T19:25:11.757Z,80.74
2022-09-30T19:27:41.173Z,81.43
2022-09-30T19:30:11.418Z,81.39
2022-09-30T19:32:38.944Z,81.41
2022-09-30T19:35:10.361Z,81.31
2022-09-30T19:37:40.500Z,81.43
2022-09-30T19:40:20.931Z,81.21
2022-09-30T19:42:50.194Z,81.01
2022-09-30T19:45:19.251Z,81.76
2022-09-30T19:47:47.690Z,81.86
2022-09-30T19:50:14.621Z,82.05
2022-09-30T19:52:52.013Z,82.25
2022-09-30T19:55:20.980Z,81.92
2022-09-30T19:57:47.853Z,82.62
2022-09-30T20:00:14.785Z,82.97
2022-09-30T20:02:41.989Z,82.81
2022-09-30T20:05:09.474Z,82.97
2022-09-30T20:07:36.388Z,83.61
2022-09-30T20:10:03.903Z,83.76
2022-09-30T20:12:30.757Z,83.94
2022-09-30T20:15:16.613Z,84.00
2022-09-30T20:17:43.588Z,84.33
2022-09-30T20:20:29.379Z,84.86
2022-09-30T20:22:59.835Z,84.93
2022-09-30T20:25:27.000Z,84.94
2022-09-30T20:27:54.075Z,85.58
2022-09-30T20:30:21.012Z,88.25
2022-09-30T20:32:47.925Z,89.23
2022-09-30T20:35:14.894Z,87.85
2022-09-30T20:37:42.473Z,86.14
2022-09-30T20:40:09.822Z,85.77
2022-09-30T20:42:38.365Z,85.11
2022-09-30T20:45:10.067Z,85.42
2022-09-30T20:47:43.834Z,84.98
2022-09-30T20:50:12.767Z,84.61
2022-09-30T20:52:39.637Z,85.12
2022-09-30T20:55:08.016Z,85.32
2022-09-30T20:57:34.883Z,85.08
2022-09-30T21:00:02.161Z,85.47
2022-09-30T21:02:30.019Z,85.09
2022-09-30T21:04:58.015Z,85.36
2022-09-30T21:07:26.035Z,85.23
2022-09-30T21:09:53.078Z,85.12
2022-09-30T21:12:20.149Z,84.83
2022-09-30T21:14:47.035Z,84.82
2022-09-30T21:17:14.043Z,84.15
2022-09-30T21:19:40.960Z,84.16
2022-09-30T21:22:08.049Z,83.71
2022-09-30T21:24:35.089Z,83.11
2022-09-30T21:27:05.642Z,82.77
2022-09-30T21:29:32.784Z,82.10
2022-09-30T21:31:59.843Z,82.17
2022-09-30T21:34:27.078Z,82.15
2022-09-30T21:36:53.983Z,82.14
2022-09-30T21:39:20.982Z,82.04
2022-09-30T21:41:48.203Z,81.71
2022-09-30T21:44:15.960Z,82.30
2022-09-30T21:46:48.195Z,82.05
2022-09-30T21:49:22.945Z,82.25
2022-09-30T21:51:52.866Z,81.88
2022-09-30T21:54:20.093Z,81.76
2022-09-30T21:56:48.396Z,81.94
2022-09-30T21:59:15.751Z,81.55
2022-09-30T22:01:42.971Z,81.57
2022-09-30T22:04:09.923Z,81.44
2022-09-30T22:06:36.823Z,81.48
2022-09-30T22:09:05.208Z,81.58
2022-09-30T22:11:33.102Z,81.27
2022-09-30T22:14:00.590Z,81.92
2022-09-30T22:16:31.967Z,81.60
2022-09-30T22:19:01.370Z,81.11
2022-09-30T22:21:34.066Z,81.72
2022-09-30T22:24:03.303Z,81.00
2022-09-30T22:26:31.791Z,81.40
2022-09-30T22:29:03.033Z,81.00
2022-09-30T22:31:32.871Z,80.28
2022-09-30T22:34:23.645Z,80.65
2022-09-30T22:37:10.252Z,80.48
2022-09-30T22:39:37.163Z,80.64
2022-09-30T22:42:04.338Z,80.87
2022-09-30T22:44:36.942Z,80.66
2022-09-30T22:47:05.192Z,80.65
2022-09-30T22:49:41.382Z,80.90
2022-09-30T22:52:09.180Z,80.69
2022-09-30T22:54:36.796Z,80.67
2022-09-30T22:57:07.718Z,80.57
2022-09-30T22:59:34.794Z,80.28
2022-09-30T23:02:01.888Z,80.97
2022-09-30T23:04:29.034Z,80.64
2022-09-30T23:06:55.923Z,80.62
2022-09-30T23:09:22.980Z,80.69
2022-09-30T23:11:53.581Z,81.36
2022-09-30T23:14:21.754Z,81.48
2022-09-30T23:16:49.797Z,81.49
2022-09-30T23:19:17.488Z,81.02
2022-09-30T23:21:44.419Z,81.36
2022-09-30T23:24:12.072Z,81.50
2022-09-30T23:26:39.616Z,81.52
2022-09-30T23:29:11.164Z,81.69
2022-09-30T23:31:38.819Z,81.73
2022-09-30T23:34:06.461Z,82.17
2022-09-30T23:36:36.348Z,81.88
2022-09-30T23:39:20.238Z,82.58
2022-09-30T23:41:48.874Z,82.49
2022-09-30T23:44:20.056Z,82.66
2022-09-30T23:47:06.970Z,82.80
2022-09-30T23:49:37.552Z,82.40
2022-09-30T23:52:12.444Z,82.66
2022-09-30T23:54:41.425Z,82.59
2022-09-30T23:57:08.651Z,82.63
2022-09-30T23:59:35.541Z,82.61
